createdAt,value
2023-02-19T00:00:15.702Z,34.00
2023-02-19T00:02:42.514Z,30.13
2023-02-19T00:05:10.320Z,31.58
2023-02-19T00:07:37.206Z,35.45
2023-02-19T00:10:03.892Z,33.17
2023-02-19T00:12:30.542Z,25.40
2023-02-19T00:14:58.388Z,19.27
2023-02-19T00:17:25.005Z,37.33
2023-02-19T00:19:51.666Z,48.17
2023-02-19T00:22:18.303Z,38.28
2023-02-19T00:24:44.907Z,40.30
2023-02-19T00:27:11.584Z,43.20
2023-02-19T00:29:38.173Z,32.47
2023-02-19T00:32:04.882Z,43.65
2023-02-19T00:34:31.533Z,45.08
2023-02-19T00:36:58.246Z,36.85
2023-02-19T00:39:24.878Z,44.95
2023-02-19T00:41:52.706Z,49.00
2023-02-19T00:44:19.775Z,44.50
2023-02-19T00:46:48.373Z,47.70
2023-02-19T00:49:21.086Z,41.55
2023-02-19T00:51:48.382Z,47.83
2023-02-19T00:54:15.051Z,49.78
2023-02-19T00:56:41.906Z,47.58
2023-02-19T00:59:09.045Z,41.53
2023-02-19T01:01:36.113Z,46.45
2023-02-19T01:04:04.834Z,51.60
2023-02-19T01:06:32.971Z,43.85
2023-02-19T01:08:59.622Z,49.00
2023-02-19T01:11:27.318Z,42.85
2023-02-19T01:13:58.314Z,50.22
2023-02-19T01:16:25.144Z,48.47
2023-02-19T01:18:52.198Z,48.35
2023-02-19T01:21:21.775Z,38.80
2023-02-19T01:23:49.444Z,33.15
2023-02-19T01:26:22.143Z,40.00
2023-02-19T01:28:48.936Z,40.13
2023-02-19T01:31:21.841Z,33.72
2023-02-19T01:33:51.325Z,39.10
2023-02-19T01:36:18.774Z,36.85
2023-02-19T01:38:45.806Z,39.63
2023-02-19T01:41:16.176Z,37.47
2023-02-19T01:44:01.193Z,39.55
2023-02-19T01:46:32.828Z,26.88
2023-02-19T01:49:04.786Z,42.83
2023-02-19T01:51:31.929Z,40.97
2023-02-19T01:54:00.436Z,38.47
2023-02-19T01:56:27.885Z,42.03
2023-02-19T01:58:54.569Z,32.50
2023-02-19T02:01:21.165Z,44.70
2023-02-19T02:03:49.648Z,42.20
2023-02-19T02:06:39.543Z,36.95
2023-02-19T02:09:24.775Z,34.70
2023-02-19T02:11:52.612Z,37.67
2023-02-19T02:14:24.318Z,40.55
2023-02-19T02:17:16.772Z,30.83
2023-02-19T02:20:02.101Z,39.45
2023-02-19T02:23:08.355Z,34.97
2023-02-19T02:25:52.717Z,29.48
2023-02-19T02:28:33.505Z,19.17
2023-02-19T02:31:04.779Z,17.40
2023-02-19T02:33:45.835Z,17.70
2023-02-19T02:36:29.543Z,25.92
2023-02-19T02:38:58.357Z,27.27
2023-02-19T02:41:26.240Z,28.67
2023-02-19T02:43:52.831Z,19.35
2023-02-19T02:46:24.798Z,10.90
2023-02-19T02:49:00.452Z,23.30
2023-02-19T02:51:39.085Z,27.23
2023-02-19T02:54:43.110Z,25.63
2023-02-19T02:57:14.778Z,19.50
2023-02-19T02:59:54.962Z,20.80
2023-02-19T03:02:25.613Z,22.38
2023-02-19T03:05:28.665Z,19.88
2023-02-19T03:08:11.349Z,17.42
2023-02-19T03:10:43.410Z,28.20
2023-02-19T03:13:46.719Z,26.23
2023-02-19T03:16:42.992Z,20.10
2023-02-19T03:19:21.320Z,20.10
2023-02-19T03:21:58.208Z,18.02
2023-02-19T03:24:48.518Z,11.35
2023-02-19T03:27:16.503Z,26.85
2023-02-19T03:29:47.944Z,25.60
2023-02-19T03:32:18.699Z,28.23
2023-02-19T03:34:50.597Z,17.80
2023-02-19T03:37:27.027Z,33.00
2023-02-19T03:39:54.090Z,31.38
2023-02-19T03:42:55.034Z,34.10
2023-02-19T03:45:34.008Z,32.38
2023-02-19T03:48:16.178Z,15.38
2023-02-19T03:51:10.605Z,13.07
2023-02-19T03:53:56.071Z,14.27
2023-02-19T03:56:50.347Z,26.08
2023-02-19T03:59:17.091Z,29.13
2023-02-19T04:01:51.261Z,23.13
2023-02-19T04:04:34.053Z,23.92
2023-02-19T04:07:00.811Z,33.13
2023-02-19T04:09:37.205Z,23.75
2023-02-19T04:12:08.571Z,32.15
2023-02-19T04:14:39.571Z,17.20
2023-02-19T04:17:11.989Z,26.10
2023-02-19T04:19:40.295Z,30.45
2023-02-19T04:22:08.312Z,19.08
2023-02-19T04:24:39.104Z,24.70
2023-02-19T04:27:06.287Z,26.05
2023-02-19T04:29:33.082Z,28.88
2023-02-19T04:31:59.789Z,27.00
2023-02-19T04:34:26.459Z,11.68
2023-02-19T04:36:53.184Z,26.33
2023-02-19T04:39:19.874Z,27.63
2023-02-19T04:41:46.460Z,26.10
2023-02-19T04:44:13.092Z,30.98
2023-02-19T04:46:43.043Z,32.78
2023-02-19T04:49:09.868Z,20.80
2023-02-19T04:51:36.482Z,28.88
2023-02-19T04:54:03.161Z,33.55
2023-02-19T04:56:29.856Z,31.08
2023-02-19T04:58:56.669Z,29.42
2023-02-19T05:01:23.483Z,24.55
2023-02-19T05:03:50.292Z,34.80
2023-02-19T05:06:17.765Z,26.25
2023-02-19T05:08:44.413Z,35.83
2023-02-19T05:11:12.559Z,21.10
2023-02-19T05:13:39.982Z,28.42
2023-02-19T05:16:09.729Z,25.23
2023-02-19T05:18:36.456Z,17.33
2023-02-19T05:21:03.173Z,19.58
2023-02-19T05:23:29.890Z,23.67
2023-02-19T05:25:56.539Z,18.25
2023-02-19T05:28:28.662Z,28.83
2023-02-19T05:30:56.636Z,28.50
2023-02-19T05:33:25.771Z,33.05
2023-02-19T05:35:54.481Z,28.77
2023-02-19T05:38:22.310Z,32.75
2023-02-19T05:40:49.256Z,25.08
2023-02-19T05:43:15.863Z,25.80
2023-02-19T05:45:42.596Z,23.15
2023-02-19T05:48:10.666Z,9.88
2023-02-19T05:50:39.728Z,18.88
2023-02-19T05:53:12.532Z,27.65
2023-02-19T05:55:39.177Z,30.80
2023-02-19T05:58:05.827Z,30.42
2023-02-19T06:00:33.546Z,36.45
2023-02-19T06:03:00.790Z,23.95
2023-02-19T06:05:27.486Z,30.20
2023-02-19T06:07:54.104Z,21.48
2023-02-19T06:10:20.773Z,31.80
2023-02-19T06:12:47.437Z,27.80
2023-02-19T06:15:14.120Z,32.85
2023-02-19T06:17:40.814Z,24.17
2023-02-19T06:20:07.759Z,30.48
2023-02-19T06:22:34.365Z,28.13
2023-02-19T06:25:00.991Z,23.20
2023-02-19T06:27:28.116Z,14.40
2023-02-19T06:29:54.944Z,28.10
2023-02-19T06:32:21.728Z,29.15
2023-02-19T06:34:48.558Z,26.38
2023-02-19T06:37:15.265Z,28.13
2023-02-19T06:39:42.026Z,30.42
2023-02-19T06:42:08.680Z,24.52
2023-02-19T06:44:35.305Z,22.13
2023-02-19T06:47:01.928Z,25.17
2023-02-19T06:49:28.552Z,26.27
2023-02-19T06:51:55.196Z,20.50
2023-02-19T06:54:21.840Z,22.08
2023-02-19T06:56:48.538Z,19.80
2023-02-19T06:59:18.287Z,23.50
2023-02-19T07:01:47.932Z,12.98
2023-02-19T07:04:14.848Z,22.48
2023-02-19T07:06:41.565Z,21.63
2023-02-19T07:09:10.588Z,17.75
2023-02-19T07:11:39.029Z,26.00
2023-02-19T07:14:08.400Z,22.15
2023-02-19T07:16:35.934Z,16.77
2023-02-19T07:19:03.535Z,26.33
2023-02-19T07:21:30.404Z,18.42
2023-02-19T07:23:57.522Z,19.33
2023-02-19T07:26:24.449Z,17.42
2023-02-19T07:28:52.032Z,20.60
2023-02-19T07:31:20.786Z,20.70
2023-02-19T07:33:47.852Z,16.80
2023-02-19T07:36:15.458Z,17.77
2023-02-19T07:38:42.099Z,18.48
2023-02-19T07:41:08.770Z,14.95
2023-02-19T07:43:37.471Z,23.00
2023-02-19T07:46:06.084Z,22.38
2023-02-19T07:48:34.234Z,20.98
2023-02-19T07:51:01.893Z,20.95
2023-02-19T07:53:29.042Z,23.60
2023-02-19T07:56:02.878Z,23.98
2023-02-19T07:58:30.215Z,34.78
2023-02-19T08:00:56.992Z,15.95
2023-02-19T08:03:23.757Z,20.42
2023-02-19T08:05:51.423Z,25.63
2023-02-19T08:08:18.243Z,23.48
2023-02-19T08:11:03.404Z,18.60
2023-02-19T08:13:31.127Z,20.15
2023-02-19T08:16:17.059Z,20.65
2023-02-19T08:18:47.859Z,20.08
2023-02-19T08:21:15.004Z,20.17
2023-02-19T08:23:41.739Z,24.50
2023-02-19T08:26:09.786Z,23.25
2023-02-19T08:28:37.016Z,18.98
2023-02-19T08:31:05.929Z,20.50
2023-02-19T08:33:32.571Z,17.08
2023-02-19T08:36:04.678Z,15.90
2023-02-19T08:38:32.287Z,16.58
2023-02-19T08:40:59.034Z,19.75
2023-02-19T08:43:25.727Z,20.63
2023-02-19T08:45:54.477Z,19.38
2023-02-19T08:48:21.359Z,15.00
2023-02-19T08:50:56.974Z,17.20
2023-02-19T08:53:24.059Z,22.05
2023-02-19T08:55:50.801Z,14.52
2023-02-19T08:58:17.510Z,19.90
2023-02-19T09:00:44.445Z,15.38
2023-02-19T09:03:11.169Z,16.08
2023-02-19T09:05:38.488Z,14.15
2023-02-19T09:08:05.388Z,14.77
2023-02-19T09:10:32.045Z,16.52
2023-02-19T09:12:58.679Z,15.10
2023-02-19T09:15:25.766Z,14.70
2023-02-19T09:17:53.036Z,9.55
2023-02-19T09:20:20.040Z,12.35
2023-02-19T09:22:46.679Z,18.52
2023-02-19T09:25:13.272Z,10.60
2023-02-19T09:27:39.929Z,13.15
2023-02-19T09:30:07.042Z,13.70
2023-02-19T09:32:33.746Z,10.88
2023-02-19T09:35:00.375Z,9.40
2023-02-19T09:37:27.933Z,12.82
2023-02-19T09:39:55.176Z,12.18
2023-02-19T09:42:29.230Z,11.98
2023-02-19T09:44:58.098Z,10.85
2023-02-19T09:47:29.683Z,10.05
2023-02-19T09:50:00.608Z,12.73
2023-02-19T09:52:33.207Z,20.27
2023-02-19T09:55:16.727Z,22.02
2023-02-19T09:57:43.847Z,16.88
2023-02-19T10:00:21.215Z,15.07
2023-02-19T10:02:51.570Z,8.63
2023-02-19T10:05:18.301Z,14.52
2023-02-19T10:07:47.302Z,16.38
2023-02-19T10:10:13.910Z,13.10
2023-02-19T10:12:46.360Z,15.73
2023-02-19T10:15:36.370Z,9.90
2023-02-19T10:18:05.502Z,13.05
2023-02-19T10:20:32.362Z,29.98
2023-02-19T10:23:10.888Z,15.18
2023-02-19T10:25:43.297Z,5.15
2023-02-19T10:28:12.473Z,2.13
2023-02-19T10:30:39.191Z,2.70
2023-02-19T10:33:14.399Z,2.30
2023-02-19T10:36:02.122Z,4.57
2023-02-19T10:38:39.824Z,1.52
2023-02-19T10:41:08.963Z,3.45
2023-02-19T10:43:37.454Z,1.98
2023-02-19T10:46:14.491Z,4.45
2023-02-19T10:48:47.060Z,1.88
2023-02-19T10:51:21.706Z,2.15
2023-02-19T10:53:51.178Z,3.15
2023-02-19T10:56:25.899Z,2.53
2023-02-19T10:58:52.739Z,2.97
2023-02-19T11:01:20.662Z,2.28
2023-02-19T11:03:49.377Z,3.22
2023-02-19T11:06:20.188Z,2.05
2023-02-19T11:08:53.772Z,2.00
2023-02-19T11:11:36.549Z,3.05
2023-02-19T11:14:15.801Z,2.13
2023-02-19T11:16:54.985Z,3.42
2023-02-19T11:19:36.975Z,2.35
2023-02-19T11:22:34.321Z,2.38
2023-02-19T11:25:21.690Z,3.85
2023-02-19T11:28:07.038Z,4.85
2023-02-19T11:30:36.485Z,4.45
2023-02-19T11:33:27.427Z,2.70
2023-02-19T11:36:00.543Z,2.50
2023-02-19T11:38:27.317Z,2.97
2023-02-19T11:41:12.033Z,2.25
2023-02-19T11:44:03.103Z,2.47
2023-02-19T11:47:11.256Z,3.13
2023-02-19T11:49:37.833Z,2.85
2023-02-19T11:52:07.391Z,2.83
2023-02-19T11:54:50.967Z,2.17
2023-02-19T11:57:29.787Z,3.05
2023-02-19T12:00:16.580Z,2.55
2023-02-19T12:03:05.051Z,5.35
2023-02-19T12:05:38.088Z,2.97
2023-02-19T12:08:21.276Z,4.43
2023-02-19T12:11:10.956Z,2.20
2023-02-19T12:13:55.878Z,3.53
2023-02-19T12:16:34.071Z,3.47
2023-02-19T12:19:25.901Z,2.65
2023-02-19T12:22:02.415Z,6.47
2023-02-19T12:24:38.027Z,6.13
2023-02-19T12:27:28.518Z,6.63
2023-02-19T12:30:20.370Z,2.83
2023-02-19T12:33:09.672Z,3.22
2023-02-19T12:36:08.858Z,3.95
2023-02-19T12:38:45.212Z,2.80
2023-02-19T12:41:30.152Z,2.97
2023-02-19T12:44:00.887Z,2.70
2023-02-19T12:46:38.209Z,2.60
2023-02-19T12:49:10.939Z,2.50
2023-02-19T12:51:47.604Z,2.70
2023-02-19T12:54:27.530Z,2.65
2023-02-19T12:57:03.263Z,2.75
2023-02-19T12:59:33.055Z,2.28
2023-02-19T13:02:24.151Z,1.70
2023-02-19T13:05:02.741Z,6.47
2023-02-19T13:07:46.928Z,3.25
2023-02-19T13:10:16.560Z,3.35
2023-02-19T13:12:44.436Z,2.97
2023-02-19T13:15:37.209Z,3.88
2023-02-19T13:18:05.837Z,3.45
2023-02-19T13:20:38.080Z,3.38
2023-02-19T13:23:58.968Z,3.33
2023-02-19T13:26:48.789Z,3.90
2023-02-19T13:29:36.713Z,4.00
2023-02-19T13:32:25.133Z,2.88
2023-02-19T13:35:35.946Z,4.60
2023-02-19T13:38:03.404Z,2.80
2023-02-19T13:40:34.966Z,3.53
2023-02-19T13:43:06.982Z,4.85
2023-02-19T13:45:38.524Z,3.22
2023-02-19T13:48:24.987Z,2.85
2023-02-19T13:51:18.758Z,4.45
2023-02-19T13:53:45.622Z,3.25
2023-02-19T13:56:34.017Z,4.20
2023-02-19T13:59:23.066Z,4.78
2023-02-19T14:01:52.126Z,5.63
2023-02-19T14:04:41.189Z,6.18
2023-02-19T14:07:07.802Z,5.05
2023-02-19T14:09:34.417Z,5.97
2023-02-19T14:12:05.507Z,7.05
2023-02-19T14:14:42.498Z,5.38
2023-02-19T14:17:09.222Z,6.28
2023-02-19T14:19:41.829Z,4.60
2023-02-19T14:22:48.859Z,5.63
2023-02-19T14:25:29.361Z,3.97
2023-02-19T14:28:17.293Z,5.53
2023-02-19T14:31:02.333Z,4.95
2023-02-19T14:33:40.998Z,5.05
2023-02-19T14:36:10.649Z,4.97
2023-02-19T14:38:46.226Z,7.90
2023-02-19T14:41:14.816Z,6.70
2023-02-19T14:43:41.860Z,6.00
2023-02-19T14:46:34.246Z,5.75
2023-02-19T14:49:07.457Z,5.47
2023-02-19T14:51:44.242Z,5.50
2023-02-19T14:54:16.067Z,5.93
2023-02-19T14:56:45.396Z,6.35
2023-02-19T14:59:12.043Z,7.13
2023-02-19T15:01:39.015Z,4.70
2023-02-19T15:04:06.602Z,9.43
2023-02-19T15:06:35.215Z,12.82
2023-02-19T15:09:07.111Z,10.98
2023-02-19T15:11:35.366Z,8.90
2023-02-19T15:14:04.276Z,4.32
2023-02-19T15:16:32.346Z,4.10
2023-02-19T15:18:59.993Z,2.40
2023-02-19T15:21:28.938Z,3.22
2023-02-19T15:24:00.891Z,6.10
2023-02-19T15:26:43.048Z,4.97
2023-02-19T15:29:15.343Z,5.25
2023-02-19T15:31:54.075Z,7.55
2023-02-19T15:34:31.749Z,11.25
2023-02-19T15:37:00.782Z,9.80
2023-02-19T15:39:36.845Z,10.77
2023-02-19T15:42:04.900Z,8.90
2023-02-19T15:44:48.485Z,9.65
2023-02-19T15:47:38.623Z,11.18
2023-02-19T15:50:17.247Z,12.20
2023-02-19T15:52:59.629Z,16.88
2023-02-19T15:55:28.207Z,10.13
2023-02-19T15:58:04.256Z,14.00
2023-02-19T16:00:37.803Z,12.95
2023-02-19T16:03:05.493Z,12.88
2023-02-19T16:05:39.197Z,14.00
2023-02-19T16:08:07.088Z,15.85
2023-02-19T16:10:33.729Z,10.68
2023-02-19T16:13:01.997Z,15.88
2023-02-19T16:15:30.715Z,11.20
2023-02-19T16:17:58.057Z,12.18
2023-02-19T16:20:30.263Z,13.00
2023-02-19T16:23:00.289Z,11.35
2023-02-19T16:25:35.554Z,11.95
2023-02-19T16:28:11.288Z,10.25
2023-02-19T16:30:38.182Z,8.82
2023-02-19T16:33:36.974Z,11.02
2023-02-19T16:36:41.806Z,11.45
2023-02-19T16:39:08.575Z,10.27
2023-02-19T16:41:41.363Z,9.38
2023-02-19T16:44:31.191Z,11.07
2023-02-19T16:47:00.561Z,10.25
2023-02-19T16:49:27.244Z,15.35
2023-02-19T16:51:54.668Z,14.20
2023-02-19T16:54:22.190Z,14.55
2023-02-19T16:56:48.885Z,11.15
2023-02-19T16:59:15.557Z,11.02
2023-02-19T17:01:42.432Z,9.90
2023-02-19T17:04:11.534Z,13.50
2023-02-19T17:06:39.378Z,14.02
2023-02-19T17:09:07.003Z,13.18
2023-02-19T17:11:33.733Z,10.80
2023-02-19T17:14:00.412Z,13.18
2023-02-19T17:16:40.623Z,12.90
2023-02-19T17:19:16.938Z,13.60
2023-02-19T17:21:45.121Z,13.32
2023-02-19T17:24:11.829Z,15.13
2023-02-19T17:26:38.867Z,13.30
2023-02-19T17:29:07.091Z,13.82
2023-02-19T17:31:34.242Z,13.88
2023-02-19T17:34:00.965Z,13.70
2023-02-19T17:36:32.481Z,14.57
2023-02-19T17:39:00.104Z,15.43
2023-02-19T17:41:26.990Z,16.73
2023-02-19T17:43:53.737Z,16.27
2023-02-19T17:46:23.264Z,20.05
2023-02-19T17:48:50.554Z,13.63
2023-02-19T17:51:18.169Z,14.05
2023-02-19T17:53:46.608Z,15.23
2023-02-19T17:56:21.686Z,13.43
2023-02-19T17:58:48.485Z,14.63
2023-02-19T18:01:15.803Z,16.15
2023-02-19T18:03:42.992Z,11.35
2023-02-19T18:06:09.768Z,16.50
2023-02-19T18:08:36.408Z,10.90
2023-02-19T18:11:03.564Z,14.35
2023-02-19T18:13:30.294Z,13.07
2023-02-19T18:15:57.035Z,15.95
2023-02-19T18:18:23.745Z,14.40
2023-02-19T18:20:50.437Z,19.17
2023-02-19T18:23:17.407Z,18.38
2023-02-19T18:25:44.262Z,17.13
2023-02-19T18:28:11.051Z,16.92
2023-02-19T18:30:37.850Z,23.92
2023-02-19T18:33:05.360Z,10.85
2023-02-19T18:35:34.088Z,8.52
2023-02-19T18:38:01.492Z,8.32
2023-02-19T18:40:28.854Z,7.00
2023-02-19T18:42:55.604Z,7.05
2023-02-19T18:45:22.330Z,5.38
2023-02-19T18:47:49.668Z,6.07
2023-02-19T18:50:17.803Z,4.35
2023-02-19T18:52:45.311Z,6.97
2023-02-19T18:55:11.999Z,7.20
2023-02-19T18:57:38.702Z,8.90
2023-02-19T19:00:06.774Z,9.73
2023-02-19T19:02:47.164Z,13.40
2023-02-19T19:05:18.204Z,9.13
2023-02-19T19:07:44.806Z,8.13
2023-02-19T19:10:11.505Z,7.07
2023-02-19T19:12:38.146Z,8.15
2023-02-19T19:15:05.523Z,10.27
2023-02-19T19:17:32.214Z,7.50
2023-02-19T19:19:58.882Z,10.77
2023-02-19T19:22:26.652Z,7.25
2023-02-19T19:24:53.383Z,8.40
2023-02-19T19:27:20.393Z,9.77
2023-02-19T19:29:47.947Z,8.85
2023-02-19T19:32:14.719Z,9.48
2023-02-19T19:34:42.847Z,7.47
2023-02-19T19:37:09.801Z,8.98
2023-02-19T19:39:36.831Z,7.25
2023-02-19T19:42:04.023Z,10.48
2023-02-19T19:44:30.644Z,6.50
2023-02-19T19:46:57.437Z,9.77
2023-02-19T19:49:24.394Z,7.70
2023-02-19T19:51:51.082Z,10.27
2023-02-19T19:54:17.788Z,8.95
2023-02-19T19:56:46.474Z,7.72
2023-02-19T19:59:14.573Z,11.77
2023-02-19T20:01:57.055Z,11.13
2023-02-19T20:04:25.048Z,15.30
2023-02-19T20:06:52.039Z,12.38
2023-02-19T20:09:19.380Z,22.08
2023-02-19T20:11:49.334Z,12.50
2023-02-19T20:14:17.468Z,12.00
2023-02-19T20:16:44.869Z,15.13
2023-02-19T20:19:12.193Z,15.77
2023-02-19T20:21:38.942Z,11.80
2023-02-19T20:24:06.087Z,12.57
2023-02-19T20:26:32.744Z,10.70
2023-02-19T20:28:59.462Z,10.98
2023-02-19T20:31:26.598Z,11.98
2023-02-19T20:33:53.403Z,13.30
2023-02-19T20:36:20.747Z,12.10
2023-02-19T20:38:49.873Z,10.68
2023-02-19T20:41:16.651Z,15.05
2023-02-19T20:43:43.275Z,17.77
2023-02-19T20:46:10.774Z,10.15
2023-02-19T20:48:37.825Z,14.10
2023-02-19T20:51:04.644Z,15.25
2023-02-19T20:53:32.079Z,13.27
2023-02-19T20:55:59.087Z,17.58
2023-02-19T20:58:26.221Z,14.75
2023-02-19T21:00:55.871Z,14.73
2023-02-19T21:03:22.575Z,12.73
2023-02-19T21:05:49.238Z,18.08
2023-02-19T21:08:17.345Z,17.70
2023-02-19T21:10:45.909Z,12.93
2023-02-19T21:13:13.013Z,11.88
2023-02-19T21:15:39.783Z,14.80
2023-02-19T21:18:06.465Z,15.38
2023-02-19T21:20:33.265Z,13.52
2023-02-19T21:23:00.800Z,21.02
2023-02-19T21:25:27.761Z,15.57
2023-02-19T21:27:54.386Z,15.88
2023-02-19T21:30:21.153Z,16.10
2023-02-19T21:32:47.846Z,16.20
2023-02-19T21:35:14.688Z,14.52
2023-02-19T21:37:43.124Z,15.02
2023-02-19T21:40:11.101Z,19.10
2023-02-19T21:42:37.733Z,15.10
2023-02-19T21:45:04.747Z,18.33
2023-02-19T21:47:33.428Z,14.88
2023-02-19T21:50:00.154Z,16.52
2023-02-19T21:52:27.053Z,18.48
2023-02-19T21:54:53.721Z,17.05
2023-02-19T21:57:21.153Z,21.45
2023-02-19T21:59:47.855Z,20.58
2023-02-19T22:02:14.801Z,17.67
2023-02-19T22:04:41.556Z,17.95
2023-02-19T22:07:08.292Z,19.83
2023-02-19T22:09:34.921Z,20.45
2023-02-19T22:12:01.701Z,13.60
2023-02-19T22:14:28.482Z,16.77
2023-02-19T22:16:55.166Z,17.02
2023-02-19T22:19:21.777Z,17.17
2023-02-19T22:21:48.544Z,17.70
2023-02-19T22:24:20.159Z,16.33
2023-02-19T22:26:47.584Z,15.90
2023-02-19T22:29:15.214Z,16.70
2023-02-19T22:31:42.224Z,20.40
2023-02-19T22:34:09.254Z,16.48
2023-02-19T22:36:39.134Z,18.98
2023-02-19T22:39:07.840Z,18.30
2023-02-19T22:41:34.557Z,16.00
2023-02-19T22:44:01.443Z,22.63
2023-02-19T22:46:30.079Z,21.58
2023-02-19T22:48:56.854Z,22.55
2023-02-19T22:51:24.454Z,20.50
2023-02-19T22:53:55.609Z,24.20
2023-02-19T22:56:24.928Z,20.98
2023-02-19T22:58:52.363Z,28.20
2023-02-19T23:01:19.704Z,24.48
2023-02-19T23:03:48.381Z,23.15
2023-02-19T23:06:16.474Z,24.67
2023-02-19T23:08:43.660Z,26.83
2023-02-19T23:11:19.646Z,29.15
2023-02-19T23:13:46.289Z,28.73
2023-02-19T23:16:13.213Z,27.42
2023-02-19T23:18:40.149Z,27.52
2023-02-19T23:21:06.986Z,29.63
2023-02-19T23:23:33.623Z,31.38
2023-02-19T23:26:00.241Z,26.70
2023-02-19T23:28:26.989Z,25.58
2023-02-19T23:30:53.754Z,29.98
2023-02-19T23:33:20.458Z,25.58
2023-02-19T23:35:47.279Z,27.63
2023-02-19T23:38:13.918Z,20.75
2023-02-19T23:40:40.651Z,17.27
2023-02-19T23:43:07.295Z,17.67
2023-02-19T23:45:33.929Z,23.98
2023-02-19T23:48:00.580Z,23.00
2023-02-19T23:50:27.297Z,18.70
2023-02-19T23:52:56.406Z,13.68
2023-02-19T23:55:23.309Z,19.95
2023-02-19T23:57:49.928Z,15.55
